createdAt,value
2022-12-29T00:03:17.902Z,51.04
2022-12-29T00:09:02.404Z,51.00
2022-12-29T00:20:41.968Z,51.09
2022-12-29T00:26:08.225Z,51.33
2022-12-29T00:32:01.466Z,51.28
2022-12-29T00:44:24.566Z,51.54
2022-12-29T00:50:31.368Z,51.47
2022-12-29T01:03:18.528Z,51.39
2022-12-29T01:09:21.383Z,51.26
2022-12-29T01:15:05.455Z,51.31
2022-12-29T01:21:19.787Z,51.09
2022-12-29T01:27:24.152Z,51.02
2022-12-29T01:33:14.177Z,50.92
2022-12-29T01:40:01.862Z,50.87
2022-12-29T01:53:22.791Z,50.91
2022-12-29T01:59:01.156Z,50.97
2022-12-29T02:04:35.449Z,50.93
2022-12-29T02:10:52.806Z,50.98
2022-12-29T02:17:20.062Z,51.31
2022-12-29T02:30:46.962Z,51.04
2022-12-29T02:38:14.972Z,51.20
2022-12-29T02:45:22.473Z,51.33
2022-12-29T02:51:58.327Z,51.44
2022-12-29T03:05:13.083Z,51.28
2022-12-29T03:14:10.180Z,52.39
2022-12-29T03:20:40.011Z,52.88
2022-12-29T03:26:41.285Z,53.33
2022-12-29T03:32:56.314Z,53.82
2022-12-29T03:39:13.284Z,54.11
2022-12-29T03:45:20.427Z,54.25
2022-12-29T03:51:17.416Z,54.29
2022-12-29T03:57:41.885Z,54.36
2022-12-29T04:03:32.395Z,54.67
2022-12-29T04:09:10.535Z,54.71
2022-12-29T04:14:43.604Z,55.00
2022-12-29T04:20:55.913Z,55.19
2022-12-29T04:27:05.810Z,55.23
2022-12-29T04:33:45.288Z,55.55
2022-12-29T04:39:38.770Z,55.74
2022-12-29T04:45:35.227Z,55.63
2022-12-29T04:51:59.333Z,55.63
2022-12-29T04:58:22.382Z,56.05
2022-12-29T05:04:38.245Z,55.66
2022-12-29T05:10:45.320Z,55.82
2022-12-29T05:17:09.549Z,55.13
2022-12-29T05:23:23.905Z,55.45
2022-12-29T05:29:48.173Z,55.50
2022-12-29T05:35:34.269Z,55.66
2022-12-29T05:42:08.324Z,55.75
2022-12-29T06:03:15.589Z,56.34
2022-12-29T06:09:49.794Z,56.66
2022-12-29T06:16:15.406Z,56.76
2022-12-29T06:29:41.818Z,56.80
2022-12-29T06:49:55.181Z,57.09
2022-12-29T06:56:34.106Z,56.42
2022-12-29T07:02:38.589Z,56.43
2022-12-29T07:09:03.102Z,55.98
2022-12-29T07:15:18.104Z,56.11
2022-12-29T07:21:33.419Z,56.07
2022-12-29T07:27:57.678Z,56.07
2022-12-29T07:54:36.768Z,57.07
2022-12-29T08:01:01.098Z,57.08
2022-12-29T08:07:09.133Z,57.34
2022-12-29T08:32:58.868Z,54.80
2022-12-29T08:39:23.555Z,54.30
2022-12-29T08:45:11.414Z,53.27
2022-12-29T08:51:35.752Z,53.11
2022-12-29T08:58:00.689Z,52.33
2022-12-29T09:04:27.819Z,51.81
2022-12-29T09:10:14.266Z,51.12
2022-12-29T09:16:33.539Z,50.78
2022-12-29T09:22:42.844Z,50.68
2022-12-29T09:29:07.397Z,50.33
2022-12-29T09:35:31.942Z,49.90
2022-12-29T09:41:47.378Z,49.85
2022-12-29T09:48:12.180Z,50.80
2022-12-29T09:54:29.508Z,50.03
2022-12-29T10:00:39.395Z,48.79
2022-12-29T10:26:54.443Z,46.69
2022-12-29T10:40:17.006Z,46.70
2022-12-29T10:45:41.026Z,46.44
2022-12-29T10:51:49.047Z,45.80
2022-12-29T11:11:43.566Z,45.45
2022-12-29T11:23:57.000Z,44.83
2022-12-29T11:30:16.488Z,44.40
2022-12-29T11:36:33.273Z,44.39
2022-12-29T11:42:19.346Z,44.43
2022-12-29T11:47:44.901Z,44.53
2022-12-29T12:00:45.993Z,44.43
2022-12-29T12:05:11.126Z,44.21
2022-12-29T12:07:20.879Z,44.89
2022-12-29T12:12:58.098Z,44.70
2022-12-29T12:18:53.523Z,44.25
2022-12-29T12:38:35.518Z,44.67
2022-12-29T12:44:12.483Z,44.83
2022-12-29T12:49:41.581Z,44.83
2022-12-29T12:55:45.645Z,44.92
2022-12-29T13:01:50.071Z,45.28
2022-12-29T13:08:38.495Z,45.45
2022-12-29T13:14:57.966Z,45.51
2022-12-29T13:21:07.372Z,45.47
2022-12-29T13:27:08.674Z,45.62
2022-12-29T13:33:04.159Z,45.65
2022-12-29T13:38:38.480Z,46.06
2022-12-29T13:49:35.277Z,46.08
2022-12-29T13:54:48.132Z,46.12
2022-12-29T14:00:23.965Z,46.17
2022-12-29T14:05:32.901Z,46.70
2022-12-29T14:11:14.767Z,46.30
2022-12-29T14:16:46.940Z,46.30
2022-12-29T14:22:39.634Z,46.33
2022-12-29T14:28:46.188Z,46.42
2022-12-29T14:34:43.129Z,46.61
2022-12-29T14:40:05.697Z,46.66
2022-12-29T14:45:20.015Z,46.76
2022-12-29T14:51:28.903Z,46.80
2022-12-29T14:56:48.710Z,46.84
2022-12-29T15:02:41.263Z,46.84
2022-12-29T15:08:45.517Z,47.00
2022-12-29T15:13:49.925Z,46.96
2022-12-29T15:19:52.915Z,47.03
2022-12-29T15:24:59.429Z,47.06
2022-12-29T15:30:25.588Z,48.27
2022-12-29T15:49:40.117Z,47.39
2022-12-29T15:55:33.233Z,47.65
2022-12-29T16:01:31.855Z,47.70
2022-12-29T16:07:26.118Z,47.80
2022-12-29T16:12:57.291Z,48.07
2022-12-29T16:18:01.167Z,48.97
2022-12-29T16:23:31.010Z,48.93
2022-12-29T16:29:48.259Z,48.24
2022-12-29T16:50:32.707Z,48.06
2022-12-29T17:24:03.492Z,48.81
2022-12-29T17:30:36.268Z,48.90
2022-12-29T17:37:19.563Z,49.39
2022-12-29T17:42:49.788Z,49.53
2022-12-29T17:48:55.560Z,49.91
2022-12-29T17:55:18.366Z,50.35
2022-12-29T18:01:31.071Z,50.59
2022-12-29T18:14:29.739Z,51.17
2022-12-29T18:20:26.609Z,51.53
2022-12-29T18:26:10.892Z,52.14
2022-12-29T18:32:04.150Z,52.07
2022-12-29T18:44:27.758Z,52.80
2022-12-29T18:50:39.206Z,53.25
2022-12-29T19:04:21.446Z,53.32
2022-12-29T19:22:56.349Z,54.04
2022-12-29T19:35:00.119Z,54.23
2022-12-29T19:40:37.534Z,54.35
2022-12-29T19:46:20.208Z,54.35
2022-12-29T19:51:29.243Z,54.58
2022-12-29T19:57:03.003Z,54.41
2022-12-29T20:02:35.126Z,54.15
2022-12-29T20:08:52.409Z,53.93
2022-12-29T20:14:05.232Z,53.95
2022-12-29T20:19:41.854Z,53.95
2022-12-29T20:24:49.980Z,53.82
2022-12-29T20:30:25.459Z,53.65
2022-12-29T20:36:15.327Z,53.49
2022-12-29T20:41:28.025Z,53.41
2022-12-29T20:46:43.303Z,53.40
2022-12-29T20:52:11.164Z,53.32
2022-12-29T20:57:24.497Z,53.18
2022-12-29T21:02:34.107Z,53.08
2022-12-29T21:07:44.072Z,52.93
2022-12-29T21:12:54.031Z,52.88
2022-12-29T21:18:34.456Z,52.84
2022-12-29T21:29:45.004Z,52.73
2022-12-29T21:35:20.679Z,52.71
2022-12-29T21:40:24.009Z,52.82
2022-12-29T21:45:34.457Z,52.88
2022-12-29T21:51:01.682Z,52.93
2022-12-29T21:56:10.519Z,52.95
2022-12-29T22:01:33.356Z,52.98
2022-12-29T22:06:57.692Z,52.91
2022-12-29T22:12:27.017Z,52.90
2022-12-29T22:18:33.343Z,52.82
2022-12-29T22:24:35.648Z,52.92
2022-12-29T22:30:00.476Z,53.02
2022-12-29T22:35:43.211Z,53.05
2022-12-29T22:41:03.215Z,53.07
2022-12-29T22:46:34.255Z,53.19
2022-12-29T22:53:24.557Z,53.38
2022-12-29T22:58:05.827Z,53.46
2022-12-29T23:05:01.911Z,53.59
2022-12-29T23:16:07.502Z,53.59
2022-12-29T23:21:28.079Z,53.68
2022-12-29T23:27:20.762Z,53.83
2022-12-29T23:33:40.051Z,53.83
2022-12-29T23:40:12.147Z,53.86
2022-12-29T23:46:28.583Z,54.08
2022-12-29T23:52:12.669Z,54.09
2022-12-29T23:57:56.923Z,54.13
